• Join FlightAware (Why Join?)
  • Login
  • US Flag 
06:45AM EDT


 

Airport Tracker/Info


-or-


 

Live Flight TrackerFlight Track Log ✈ N130LH ✈ 29-May-2009 ✈ M01 - KFDK

Flight Track Log - Related Links

Times and Time Zones

All times are in EDT time to prevent confusion due to time zone crossing. See the N130LH flight status page for this flight to view local times or setup timezone preferences in your user account.

Time Position Orientation Groundspeed Altitude Reporting Facility
EDT Latitude Longitude Course Direction KTS MPH feet Rate Location/Type
08:57AM 35.2439 -89.4469 91° East 11,000  Level
08:58AM 35.2433 -89.3908 96° East 159 183 9,100 -720 Descending D
08:59AM 35.2389 -89.3400 93° East 154 177 9,600 480 Climbing C
09:00AM 35.2364 -89.2867 88° East 154 177 10,100 420 Climbing C
09:01AM 35.2381 -89.2333 91° East 159 183 10,500 360 Climbing C
09:02AM 35.2375 -89.1750 75° East 159 183 10,900 180 Climbing Memphis Center
09:03AM 35.2494 -89.1189 63° Northeast 159 183 10,900  Level Memphis Center
09:04AM 35.2697 -89.0703 60° Northeast 166 191 10,900  Level Memphis Center
09:05AM 35.2942 -89.0189 62° Northeast 182 209 10,900  Level Memphis Center
09:06AM 35.3186 -88.9625 60° Northeast 182 209 10,900  Level Memphis Center
09:07AM 35.3431 -88.9114 63° Northeast 177 204 10,900  Level Memphis Center
09:08AM 35.3653 -88.8575 61° Northeast 177 204 10,900  Level Memphis Center
09:09AM 35.3897 -88.8033 62° Northeast 177 204 10,900  Level Memphis Center
09:10AM 35.4142 -88.7469 61° Northeast 177 204 10,900  Level Memphis Center
09:11AM 35.4383 -88.6931 63° Northeast 177 204 10,900  Level Memphis Center
09:12AM 35.4606 -88.6389 62° Northeast 177 204 10,900  Level Memphis Center
09:13AM 35.4847 -88.5825 62° Northeast 177 204 10,900  Level Memphis Center
09:14AM 35.5069 -88.5308 62° Northeast 177 204 10,900  Level Memphis Center
09:15AM 35.5292 -88.4794 63° Northeast 177 204 10,900  Level Memphis Center
09:16AM 35.5514 -88.4253 64° Northeast 177 204 10,900  Level Memphis Center
09:17AM 35.5733 -88.3711 60° Northeast 177 204 10,900  Level Memphis Center
09:18AM 35.5975 -88.3194 62° Northeast 177 204 10,900  Level Memphis Center
09:19AM 35.6217 -88.2628 60° Northeast 177 204 10,900  Level Memphis Center
09:20AM 35.6458 -88.2111 55° Northeast 177 204 11,000  Climbing Memphis Center
09:21AM 35.6719 -88.1644 53° Northeast 172 198 11,000  Level Memphis Center
09:22AM 35.7025 -88.1150 53° Northeast 172 198 11,000  Level Memphis Center
09:23AM 35.7308 -88.0681 54° Northeast 172 198 11,000  Level Memphis Center
09:24AM 35.7569 -88.0239 61° Northeast 172 198 11,000  Level Memphis Center
09:25AM 35.7811 -87.9694 66° East 172 198 11,000  Level Memphis Center
09:26AM 35.8008 -87.9153 64° Northeast 172 198 11,000  Level Memphis Center
09:27AM 35.8228 -87.8608 62° Northeast 172 198 11,000 -60 Level Memphis Center
09:28AM 35.8447 -87.8089 64° Northeast 177 204 10,900 -60 Descending Memphis Center
09:29AM 35.8664 -87.7544 64° Northeast 172 198 10,900  Level Memphis Center
09:30AM 35.8883 -87.7000 63° Northeast 172 198 10,900  Level Memphis Center
09:31AM 35.9119 -87.6428 64° Northeast 177 204 10,900  Level Memphis Center
09:32AM 35.9336 -87.5883 62° Northeast 177 204 10,900  Level Memphis Center
09:33AM 35.9500 -87.5500 90° East 174 200 10,900  Level
09:33AM 35.9500 -87.5333 357° North 174 200 10,900  Level
09:33AM 35.9553 -87.5336 62° Northeast 177 204 10,900  Level Memphis Center
09:34AM 35.9772 -87.4817 348° North 177 204 10,900  Level Memphis Center
09:35AM 35.9833 -87.4833 73° East 172 198 10,900  Level
09:35AM 35.9967 -87.4297 319° Northwest 177 204 10,900  Level Memphis Center
09:36AM 36.0000 -87.4333 68° East 170 196 10,900  Level
09:36AM 36.0186 -87.3775 102° East 172 198 10,900  Level Memphis Center
09:37AM 36.0167 -87.3667 55° Northeast 169 194 10,900  Level
09:37AM 36.0403 -87.3256 37° Northeast 172 198 10,900  Level Memphis Center
09:38AM 36.0500 -87.3167 75° East 169 194 10,900  Level
09:38AM 36.0597 -87.2733 70° East 167 192 10,900  Level Memphis Center
09:39AM 36.0667 -87.2500 59° Northeast 168 193 10,900  Level
09:39AM 36.0794 -87.2239 79° East 167 192 10,900  Level Memphis Center
09:40AM 36.0833 -87.2000 52° Northeast 169 194 10,900  Level
09:40AM 36.1031 -87.1689 101° East 162 186 10,900  Level Memphis Center
09:41AM 36.1000 -87.1500 48° Northeast 169 194 10,900  Level
09:41AM 36.1206 -87.1219 54° Northeast 162 186 10,900  Level Memphis Center
09:42AM 36.1333 -87.1000 72° East 167 192 10,900  Level
09:42AM 36.1400 -87.0750 64° Northeast 162 186 10,900  Level Memphis Center
09:43AM 36.1500 -87.0500 67° East 165 190 10,900  Level
09:43AM 36.1594 -87.0228 68° East 162 186 10,900  Level Memphis Center
09:44AM 36.1667 -87.0000 60° Northeast 165 190 10,900  Level
09:44AM 36.1792 -86.9731 78° East 162 186 10,900  Level Memphis Center
09:45AM 36.1833 -86.9500 54° Northeast 165 190 10,900  Level
09:45AM 36.2006 -86.9208 92° East 162 186 10,900  Level Memphis Center
09:46AM 36.2000 -86.9000 52° Northeast 166 191 10,900  Level
09:46AM 36.2200 -86.8686 48° Northeast 162 186 10,900  Level Memphis Center
09:47AM 36.2333 -86.8500 77° East 167 192 10,900  Level
09:47AM 36.2394 -86.8161 51° Northeast 162 186 10,900  Level Memphis Center
09:48AM 36.2500 -86.8000 73° East 166 191 10,900  Level
09:49AM 36.2667 -86.7333 58° Northeast 166 191 10,900  Level
09:50AM 36.2833 -86.7000 58° Northeast 166 191 10,900  Level
09:51AM 36.3167 -86.6333 68° East 167 192 10,900  Level
09:52AM 36.3333 -86.5833 67° East 167 192 10,900  Level
09:53AM 36.3500 -86.5333 67° East 168 193 10,900  Level
09:54AM 36.3667 -86.4833 68° East 169 194 10,900  Level
09:55AM 36.3833 -86.4333 50° Northeast 170 196 10,900  Level
09:56AM 36.4167 -86.3833 68° East 171 197 11,000  Climbing C
09:57AM 36.4333 -86.3333 70° East 172 198 10,900 -60 Descending D
09:57AM 36.4308 -86.3308 67° East 11,000  Climbing C
09:58AM 36.4519 -86.2703 62° Northeast 198 228 10,900 -60 Descending Memphis Center
09:59AM 36.4731 -86.2203 64° Northeast 175 201 10,900  Level Memphis Center
10:00AM 36.4942 -86.1675 66° East 175 201 10,900  Level Memphis Center
10:01AM 36.5153 -86.1097 62° Northeast 170 196 10,900  Level Memphis Center
10:02AM 36.5383 -86.0567 66° East 164 189 10,900  Level Memphis Center
10:03AM 36.5575 -86.0042 66° East 164 189 10,900  Level Memphis Center
10:04AM 36.5764 -85.9514 64° Northeast 164 189 10,900  Level Memphis Center
10:05AM 36.5956 -85.9014 64° Northeast 164 189 10,900  Level Memphis Center
10:06AM 36.6100 -85.8647 70° East 170 196 10,900  Level Indianapolis Center
10:07AM 36.6236 -85.8186 62° Northeast 176 203 10,900  Level Indianapolis Center
10:08AM 36.6453 -85.7675 68° East 171 197 10,900  Level Indianapolis Center
10:09AM 36.6631 -85.7136 65° Northeast 171 197 11,000  Climbing Indianapolis Center
10:10AM 36.6828 -85.6597 62° Northeast 171 197 11,000  Level Indianapolis Center
10:11AM 36.7044 -85.6086 64° Northeast 171 197 11,000  Level Indianapolis Center
10:12AM 36.7242 -85.5572 65° Northeast 171 197 11,000  Level Indianapolis Center
10:13AM 36.7439 -85.5033 63° Northeast 171 197 11,000  Level Indianapolis Center
10:14AM 36.7656 -85.4494 67° East 171 197 11,000  Level Indianapolis Center
10:15AM 36.7853 -85.3903 64° Northeast 171 197 11,000  Level Indianapolis Center
10:16AM 36.8050 -85.3389 63° Northeast 171 197 11,000  Level Indianapolis Center
10:17AM 36.8267 -85.2850 65° Northeast 171 197 11,000  Level Indianapolis Center
10:18AM 36.8461 -85.2336 63° Northeast 171 197 11,000  Level Indianapolis Center
10:19AM 36.8678 -85.1794 66° East 171 197 11,000  Level Indianapolis Center
10:20AM 36.8872 -85.1253 67° East 171 197 11,000  Level Indianapolis Center
10:21AM 36.9047 -85.0739 63° Northeast 171 197 11,000  Level Indianapolis Center
10:22AM 36.9261 -85.0222 66° East 171 197 11,000  Level Indianapolis Center
10:23AM 36.9456 -84.9681 65° Northeast 171 197 11,000  Level Indianapolis Center
10:24AM 36.9650 -84.9164 65° Northeast 171 197 11,000  Level Indianapolis Center
10:25AM 36.9842 -84.8647 64° Northeast 171 197 11,000  Level Indianapolis Center
10:26AM 37.0036 -84.8158 65° Northeast 166 191 11,000  Level Indianapolis Center
10:27AM 37.0231 -84.7639 66° East 166 191 11,000  Level Indianapolis Center
10:28AM 37.0381 -84.7225 72° East 154 177 11,000  Level Indianapolis Center
10:29AM 37.0553 -84.6578 65° Northeast 165 190 11,000  Level Indianapolis Center
10:30AM 37.0744 -84.6061 65° Northeast 165 190 11,000  Level Indianapolis Center
10:31AM 37.0936 -84.5542 65° Northeast 160 184 11,000  Level Indianapolis Center
10:32AM 37.1131 -84.5025 64° Northeast 160 184 11,000  Level Indianapolis Center
10:33AM 37.1342 -84.4481 65° Northeast 155 178 11,000  Level Indianapolis Center
10:34AM 37.1533 -84.3961 66° East 155 178 11,000  Level Indianapolis Center
10:35AM 37.1725 -84.3417 64° Northeast 155 178 11,000  Level Indianapolis Center
10:36AM 37.1917 -84.2922 66° East 155 178 11,000  Level Indianapolis Center
10:37AM 37.2108 -84.2378 67° East 161 185 11,000  Level Indianapolis Center
10:38AM 37.2297 -84.1831 66° East 161 185 11,000  Level Indianapolis Center
10:39AM 37.2489 -84.1283 64° Northeast 166 191 11,000  Level Indianapolis Center
10:40AM 37.2700 -84.0736 65° Northeast 171 197 11,000  Level Indianapolis Center
10:41AM 37.2911 -84.0164 67° East 171 197 11,000  Level Indianapolis Center
10:42AM 37.3100 -83.9592 64° Northeast 171 197 11,000  Level Indianapolis Center
10:43AM 37.3311 -83.9044 68° East 171 197 11,000  Level Indianapolis Center
10:44AM 37.3500 -83.8469 64° Northeast 171 197 11,000  Level Indianapolis Center
10:45AM 37.3711 -83.7922 68° East 171 197 11,000  Level Indianapolis Center
10:46AM 37.3900 -83.7347 63° Northeast 171 197 11,000  Level Indianapolis Center
10:47AM 37.4108 -83.6825 66° East 171 197 11,000  Level Indianapolis Center
10:48AM 37.4317 -83.6225 65° Northeast 171 197 11,000  Level Indianapolis Center
10:49AM 37.4525 -83.5675 67° East 171 197 11,000  Level Indianapolis Center
10:50AM 37.4714 -83.5100 66° East 171 197 11,000  Level Indianapolis Center
10:51AM 37.4922 -83.4522 65° Northeast 171 197 11,000  Level Indianapolis Center
10:52AM 37.5131 -83.3947 66° East 171 197 11,000  Level Indianapolis Center
10:53AM 37.5317 -83.3422 66° East 171 197 11,000  Level Indianapolis Center
10:54AM 37.5525 -83.2844 66° East 171 197 11,000  Level Indianapolis Center
10:55AM 37.5731 -83.2269 68° East 171 197 11,000  Level Indianapolis Center
10:56AM 37.5917 -83.1692 68° East 176 203 11,000  Level Indianapolis Center
10:57AM 37.6103 -83.1114 66° East 176 203 11,000  Level Indianapolis Center
10:58AM 37.6308 -83.0536 64° Northeast 171 197 11,000  Level Indianapolis Center
10:59AM 37.6536 -82.9956 66° East 171 197 11,000  Level Indianapolis Center
11:00AM 37.6742 -82.9378 69° East 176 203 11,000  Level Indianapolis Center
11:01AM 37.6925 -82.8772 66° East 176 203 11,000  Level Indianapolis Center
11:02AM 37.7131 -82.8192 66° East 171 197 11,000  Level Indianapolis Center
11:03AM 37.7336 -82.7614 66° East 171 197 11,000  Level Indianapolis Center
11:04AM 37.7542 -82.7033 66° East 171 197 11,000  Level Indianapolis Center
11:05AM 37.7764 -82.6400 68° East 171 197 11,000  Level Indianapolis Center
11:06AM 37.7947 -82.5819 65° Northeast 171 197 11,000  Level Indianapolis Center
11:07AM 37.8153 -82.5264 67° East 171 197 11,000  Level Indianapolis Center
11:08AM 37.8356 -82.4656 67° East 171 197 11,000  Level Indianapolis Center
11:09AM 37.8539 -82.4103 66° East 171 197 11,000  Level Indianapolis Center
11:10AM 37.8742 -82.3519 66° East 171 197 11,000  Level Indianapolis Center
11:11AM 37.8942 -82.2936 65° Northeast 176 203 11,000  Level Indianapolis Center
11:12AM 37.9144 -82.2381 69° East 171 197 11,000  Level Indianapolis Center
11:13AM 37.9325 -82.1797 69° East 171 197 11,000 -60 Level Indianapolis Center
11:14AM 37.9506 -82.1189 66° East 171 197 10,900 -60 Descending Indianapolis Center
11:15AM 37.9708 -82.0606 66° East 171 197 10,900  Level Indianapolis Center
11:16AM 37.9908 -82.0022 66° East 171 197 10,900  Level Indianapolis Center
11:17AM 38.0111 -81.9439 69° East 171 197 10,900  Level Indianapolis Center
11:18AM 38.0289 -81.8853 64° Northeast 171 197 10,900  Level Indianapolis Center
11:19AM 38.0511 -81.8269 69° East 171 197 10,900  Level Indianapolis Center
11:20AM 38.0689 -81.7683 65° Northeast 171 197 10,900  Level Indianapolis Center
11:21AM 38.0908 -81.7072 69° East 171 197 10,900  Level Indianapolis Center
11:22AM 38.1089 -81.6486 68° East 171 197 10,900  Level Indianapolis Center
11:23AM 38.1286 -81.5875 68° East 171 197 10,900  Level Indianapolis Center
11:24AM 38.1483 -81.5261 67° East 171 197 10,900  Level Indianapolis Center
11:25AM 38.1683 -81.4647 65° Northeast 171 197 10,900  Level Indianapolis Center
11:26AM 38.1900 -81.4061 70° East 171 197 10,900  Level Indianapolis Center
11:27AM 38.2078 -81.3447 68° East 171 197 10,900  Level Indianapolis Center
11:28AM 38.2275 -81.2833 67° East 171 197 10,900  Level Indianapolis Center
11:29AM 38.2472 -81.2244 64° Northeast 171 197 10,900  Level Indianapolis Center
11:30AM 38.2689 -81.1683 61° Northeast 171 197 10,900  Level Indianapolis Center
11:31AM 38.2950 -81.1092 60° Northeast 176 203 10,900  Level Indianapolis Center
11:32AM 38.3208 -81.0528 62° Northeast 176 203 10,900  Level Indianapolis Center
11:33AM 38.3447 -80.9964 63° Northeast 181 208 10,900  Level Indianapolis Center
11:34AM 38.3683 -80.9372 67° East 181 208 11,000  Climbing Indianapolis Center
11:35AM 38.3878 -80.8783 63° Northeast 181 208 10,900 -60 Descending Indianapolis Center
11:36AM 38.4117 -80.8192 68° East 181 208 10,900  Level Indianapolis Center
11:37AM 38.4311 -80.7578 70° East 178 205 11,000  Climbing Washington Center
11:38AM 38.4531 -80.6822 73° East 178 205 11,000  Level Washington Center
11:39AM 38.4683 -80.6197 76° East 183 211 11,100 -60 Climbing Washington Center
11:40AM 38.4817 -80.5517 76° East 183 211 10,900 -60 Descending Washington Center
11:41AM 38.4947 -80.4861 71° East 183 211 11,000  Climbing Washington Center
11:42AM 38.5119 -80.4236 65° Northeast 183 211 10,900 -60 Descending Washington Center
11:43AM 38.5328 -80.3667 64° Northeast 183 211 10,900  Level Washington Center
11:44AM 38.5539 -80.3122 59° Northeast 183 211 10,900  Level Washington Center
11:45AM 38.5789 -80.2581 68° East 183 211 10,900  Level Washington Center
11:46AM 38.5978 -80.1981 69° East 183 211 10,900  Level Washington Center
11:47AM 38.6169 -80.1356 68° East 178 205 11,000  Climbing Washington Center
11:48AM 38.6358 -80.0756 63° Northeast 178 205 11,000  Level Washington Center
11:49AM 38.6611 -80.0106 74° East 178 205 11,000 -60 Level Washington Center
11:50AM 38.6761 -79.9450 71° East 183 211 10,900 -60 Descending Washington Center
11:51AM 38.6931 -79.8822 76° East 188 216 10,900  Level Washington Center
11:52AM 38.7056 -79.8189 77° East 183 211 10,900  Level Washington Center
11:53AM 38.7161 -79.7611 65° Northeast 183 211 10,900  Level Washington Center
11:54AM 38.7389 -79.6986 66° East 183 211 10,900  Level Washington Center
11:55AM 38.7597 -79.6383 67° East 183 211 11,000  Climbing Washington Center
11:56AM 38.7808 -79.5731 64° Northeast 183 211 10,900 -60 Descending Washington Center
11:57AM 38.8036 -79.5131 64° Northeast 193 222 10,900  Level Washington Center
11:58AM 38.8264 -79.4528 65° Northeast 190 219 11,000  Climbing Washington Center
11:59AM 38.8517 -79.3822 65° Northeast 190 219 11,000  Level Washington Center
12:00PM 38.8744 -79.3194 64° Northeast 184 212 11,000  Level Washington Center
12:01PM 38.8972 -79.2592 57° Northeast 189 217 11,000  Level Washington Center
12:02PM 38.9258 -79.2019 56° Northeast 189 217 11,000  Level Washington Center
12:03PM 38.9547 -79.1472 55° Northeast 189 217 11,000  Level Washington Center
12:04PM 38.9856 -79.0900 57° Northeast 189 217 11,000  Level Washington Center
12:05PM 39.0142 -79.0325 61° Northeast 189 217 11,000  Level Washington Center
12:06PM 39.0411 -78.9697 62° Northeast 189 217 11,000  Level Washington Center
12:07PM 39.0658 -78.9094 61° Northeast 189 217 11,000  Level Washington Center
12:08PM 39.0925 -78.8464 63° Northeast 184 212 11,000  Level Washington Center
12:09PM 39.1169 -78.7858 59° Northeast 184 212 11,100  Climbing Washington Center
12:10PM 39.1436 -78.7283 63° Northeast 189 217 11,000 -300 Descending D
12:11PM 39.1703 -78.6597 66° East 196 226 10,500 -660 Descending D
12:12PM 39.1972 -78.5833 53° Northeast 196 226 9,800 -660 Descending D
12:13PM 39.2167 -78.5500 74° East 210 242 9,500 -600 Descending D
12:13PM 39.2239 -78.5172 70° East 203 234 9,200 -600 Descending Washington Center
12:13PM 39.2333 -78.4833 62° Northeast 212 244 9,000 -300 Descending D
12:14PM 39.2464 -78.4511 75° East 203 234 8,900 -120 Descending Washington Center
12:14PM 39.2500 -78.4333 69° East 206 237 8,900  Level
12:15PM 39.2644 -78.3850 55° Northeast 203 234 8,900  Level Washington Center
12:15PM 39.2833 -78.3500 82° East 198 228 8,900 -360 Level
12:16PM 39.2869 -78.3186 64° Northeast 193 222 8,600 -540 Descending D
12:16PM 39.3000 -78.2833 52° Northeast 199 229 8,400 -540 Descending D
12:17PM 39.3153 -78.2581 77° East 193 222 8,100 -480 Descending D
12:17PM 39.3167 -78.2500 53° Northeast 201 231 8,000 -420 Descending D
12:18PM 39.3394 -78.2108 63° Northeast 193 222 7,700 -540 Descending D
12:18PM 39.3500 -78.1833 46° Northeast 202 232 7,500 -600 Descending D
12:19PM 39.3803 -78.1422 66° East 198 228 7,100 -540 Descending D
12:19PM 39.3833 -78.1333 63° Northeast 201 231 7,000 -540 Descending D
12:20PM 39.4047 -78.0786 37° Northeast 198 228 6,600 -600 Descending D
12:20PM 39.4167 -78.0667 79° East 202 232 6,500 -540 Descending D
12:21PM 39.4247 -78.0150 53° Northeast 192 221 6,100 -480 Descending D
12:21PM 39.4333 -78.0000 82° East 198 228 6,000 -540 Descending D
12:22PM 39.4386 -77.9483 115° Southeast 192 221 5,600 -540 Descending D
12:22PM 39.4333 -77.9333 72° East 196 226 5,500 -480 Descending D
12:23PM 39.4500 -77.8667 90° East 192 221 5,000 -600 Descending D
12:24PM 39.4500 -77.8000 90° East 194 223 4,400 -540 Descending D
12:25PM 39.4500 -77.7333 90° East 194 223 4,000 -300 Descending D
12:26PM 39.4500 -77.6667 113° Southeast 180 207 3,900 -60 Descending D
12:27PM 39.4333 -77.6167 131° Southeast 167 192 3,900  Level
12:28PM 39.4000 -77.5667 113° Southeast 157 181 3,900  Level
12:29PM 39.3833 -77.5167 113° Southeast 155 178 3,900  Level
12:30PM 39.3667 -77.4667 67° East 157 181 3,900  Level
12:31PM 39.3833 -77.4167 72° East 158 182 3,900  Level
12:32PM 39.4000 -77.3500 90° East 157 181 3,900  Level
12:33PM 39.4000 -77.3000 67° East 159 183 3,900  Level
12:34PM 39.4167 -77.2500 67° East 158 182 3,900  Level
12:35PM 39.4333 -77.2000 30° Northeast 159 183 3,900 -180 Level
12:36PM 39.4667 -77.1833 38° Northeast 151 174 -240 Descending D
12:37PM 39.5000 -77.1500 38° Northeast 159 183 3,500 1,560 Climbing C
12:38PM 39.5333 -77.1167 14° North 166 191 3,000 -300 Descending D
12:39PM 39.5833 -77.1000 14° North 167 192 3,000  Level